sensor_id;sensor_type;location;lat;lon;timestamp;P1;durP1;ratioP1;P2;durP2;ratioP2
17606;SDS011;8922;52.240;20.980;2022-11-06T00:01:25;12.03;;;6.90;;
17606;SDS011;8922;52.240;20.980;2022-11-06T00:03:52;12.23;;;6.60;;
17606;SDS011;8922;52.240;20.980;2022-11-06T00:06:20;12.83;;;6.80;;
17606;SDS011;8922;52.240;20.980;2022-11-06T00:09:06;12.67;;;6.33;;
17606;SDS011;8922;52.240;20.980;2022-11-06T00:11:34;10.50;;;6.30;;
17606;SDS011;8922;52.240;20.980;2022-11-06T00:14:01;11.63;;;6.30;;
17606;SDS011;8922;52.240;20.980;2022-11-06T00:16:28;9.83;;;6.53;;
17606;SDS011;8922;52.240;20.980;2022-11-06T00:18:55;11.17;;;6.43;;
17606;SDS011;8922;52.240;20.980;2022-11-06T00:21:26;15.40;;;6.50;;
17606;SDS011;8922;52.240;20.980;2022-11-06T00:23:54;12.67;;;6.83;;
17606;SDS011;8922;52.240;20.980;2022-11-06T00:26:24;16.60;;;6.93;;
17606;SDS011;8922;52.240;20.980;2022-11-06T00:28:53;15.27;;;7.90;;
17606;SDS011;8922;52.240;20.980;2022-11-06T00:31:21;12.00;;;7.23;;
17606;SDS011;8922;52.240;20.980;2022-11-06T00:33:49;17.50;;;7.10;;
17606;SDS011;8922;52.240;20.980;2022-11-06T00:36:17;9.30;;;6.30;;
17606;SDS011;8922;52.240;20.980;2022-11-06T00:38:45;11.87;;;6.60;;
17606;SDS011;8922;52.240;20.980;2022-11-06T00:41:12;16.30;;;7.27;;
17606;SDS011;8922;52.240;20.980;2022-11-06T00:43:41;14.10;;;7.40;;
17606;SDS011;8922;52.240;20.980;2022-11-06T00:46:13;11.87;;;6.90;;
17606;SDS011;8922;52.240;20.980;2022-11-06T00:48:40;10.83;;;6.33;;
17606;SDS011;8922;52.240;20.980;2022-11-06T00:51:07;12.67;;;6.93;;
17606;SDS011;8922;52.240;20.980;2022-11-06T00:53:37;13.77;;;7.57;;
17606;SDS011;8922;52.240;20.980;2022-11-06T00:56:04;12.17;;;6.97;;
17606;SDS011;8922;52.240;20.980;2022-11-06T00:58:33;11.67;;;6.80;;
17606;SDS011;8922;52.240;20.980;2022-11-06T01:01:08;12.47;;;6.23;;
17606;SDS011;8922;52.240;20.980;2022-11-06T01:03:36;11.40;;;6.90;;
17606;SDS011;8922;52.240;20.980;2022-11-06T01:06:04;15.10;;;6.57;;
17606;SDS011;8922;52.240;20.980;2022-11-06T01:08:32;12.83;;;7.00;;
17606;SDS011;8922;52.240;20.980;2022-11-06T01:11:03;12.27;;;7.07;;
17606;SDS011;8922;52.240;20.980;2022-11-06T01:13:31;10.13;;;6.17;;
17606;SDS011;8922;52.240;20.980;2022-11-06T01:15:58;12.97;;;6.43;;
17606;SDS011;8922;52.240;20.980;2022-11-06T01:18:26;8.87;;;6.03;;
17606;SDS011;8922;52.240;20.980;2022-11-06T01:20:53;10.17;;;5.97;;
17606;SDS011;8922;52.240;20.980;2022-11-06T01:23:19;12.10;;;6.77;;
17606;SDS011;8922;52.240;20.980;2022-11-06T01:25:54;10.57;;;6.80;;
17606;SDS011;8922;52.240;20.980;2022-11-06T01:28:22;13.33;;;6.47;;
17606;SDS011;8922;52.240;20.980;2022-11-06T01:30:49;15.70;;;7.30;;
17606;SDS011;8922;52.240;20.980;2022-11-06T01:33:15;13.87;;;7.20;;
17606;SDS011;8922;52.240;20.980;2022-11-06T01:35:44;11.17;;;6.63;;
17606;SDS011;8922;52.240;20.980;2022-11-06T01:38:12;16.73;;;7.20;;
17606;SDS011;8922;52.240;20.980;2022-11-06T01:40:39;11.83;;;6.87;;
17606;SDS011;8922;52.240;20.980;2022-11-06T01:43:08;10.93;;;6.57;;
17606;SDS011;8922;52.240;20.980;2022-11-06T01:45:39;12.53;;;6.67;;
17606;SDS011;8922;52.240;20.980;2022-11-06T01:48:09;12.50;;;7.47;;
17606;SDS011;8922;52.240;20.980;2022-11-06T01:50:36;12.17;;;6.67;;
17606;SDS011;8922;52.240;20.980;2022-11-06T01:53:05;14.20;;;7.20;;
17606;SDS011;8922;52.240;20.980;2022-11-06T01:55:33;9.80;;;6.83;;
17606;SDS011;8922;52.240;20.980;2022-11-06T01:58:04;12.97;;;6.80;;
17606;SDS011;8922;52.240;20.980;2022-11-06T02:00:33;20.43;;;7.67;;
17606;SDS011;8922;52.240;20.980;2022-11-06T02:03:00;14.27;;;7.47;;
17606;SDS011;8922;52.240;20.980;2022-11-06T02:05:28;17.03;;;6.90;;
17606;SDS011;8922;52.240;20.980;2022-11-06T02:07:55;12.67;;;6.50;;
17606;SDS011;8922;52.240;20.980;2022-11-06T02:10:25;15.33;;;6.67;;
17606;SDS011;8922;52.240;20.980;2022-11-06T02:12:58;17.53;;;7.13;;
17606;SDS011;8922;52.240;20.980;2022-11-06T02:15:44;11.03;;;7.30;;
17606;SDS011;8922;52.240;20.980;2022-11-06T02:18:23;14.13;;;7.60;;
17606;SDS011;8922;52.240;20.980;2022-11-06T02:21:17;12.70;;;7.07;;
17606;SDS011;8922;52.240;20.980;2022-11-06T02:27:08;14.67;;;7.80;;
17606;SDS011;8922;52.240;20.980;2022-11-06T02:29:39;11.43;;;6.93;;
17606;SDS011;8922;52.240;20.980;2022-11-06T02:32:13;15.83;;;7.30;;
17606;SDS011;8922;52.240;20.980;2022-11-06T02:34:43;13.03;;;7.00;;
17606;SDS011;8922;52.240;20.980;2022-11-06T02:37:16;13.10;;;7.17;;
17606;SDS011;8922;52.240;20.980;2022-11-06T02:39:47;12.17;;;7.43;;
17606;SDS011;8922;52.240;20.980;2022-11-06T02:42:17;13.87;;;7.87;;
17606;SDS011;8922;52.240;20.980;2022-11-06T02:44:46;14.27;;;7.30;;
17606;SDS011;8922;52.240;20.980;2022-11-06T02:47:17;11.37;;;7.57;;
17606;SDS011;8922;52.240;20.980;2022-11-06T02:49:45;15.17;;;7.73;;
17606;SDS011;8922;52.240;20.980;2022-11-06T02:52:16;11.50;;;7.50;;
17606;SDS011;8922;52.240;20.980;2022-11-06T02:54:47;14.13;;;7.70;;
17606;SDS011;8922;52.240;20.980;2022-11-06T02:57:19;12.00;;;7.80;;
17606;SDS011;8922;52.240;20.980;2022-11-06T02:59:49;12.97;;;7.70;;
17606;SDS011;8922;52.240;20.980;2022-11-06T03:02:20;10.13;;;7.03;;
17606;SDS011;8922;52.240;20.980;2022-11-06T03:04:50;11.63;;;7.30;;
17606;SDS011;8922;52.240;20.980;2022-11-06T03:07:21;11.50;;;7.00;;
17606;SDS011;8922;52.240;20.980;2022-11-06T03:09:53;11.37;;;7.20;;
17606;SDS011;8922;52.240;20.980;2022-11-06T03:12:22;10.50;;;7.00;;
17606;SDS011;8922;52.240;20.980;2022-11-06T03:14:54;12.93;;;7.37;;
17606;SDS011;8922;52.240;20.980;2022-11-06T03:17:27;14.40;;;7.73;;
17606;SDS011;8922;52.240;20.980;2022-11-06T03:20:03;12.73;;;7.60;;
17606;SDS011;8922;52.240;20.980;2022-11-06T03:22:38;12.67;;;7.33;;
17606;SDS011;8922;52.240;20.980;2022-11-06T03:25:10;11.30;;;7.33;;
17606;SDS011;8922;52.240;20.980;2022-11-06T03:27:46;12.40;;;7.77;;
17606;SDS011;8922;52.240;20.980;2022-11-06T03:30:17;13.87;;;7.97;;
17606;SDS011;8922;52.240;20.980;2022-11-06T03:32:45;16.00;;;8.33;;
17606;SDS011;8922;52.240;20.980;2022-11-06T03:35:17;15.90;;;8.63;;
17606;SDS011;8922;52.240;20.980;2022-11-06T03:37:49;14.00;;;8.33;;
17606;SDS011;8922;52.240;20.980;2022-11-06T03:40:21;14.03;;;7.73;;
17606;SDS011;8922;52.240;20.980;2022-11-06T03:42:52;15.47;;;8.57;;
17606;SDS011;8922;52.240;20.980;2022-11-06T03:45:23;15.77;;;8.33;;
17606;SDS011;8922;52.240;20.980;2022-11-06T03:47:53;15.30;;;8.13;;
17606;SDS011;8922;52.240;20.980;2022-11-06T03:50:24;15.00;;;8.47;;
17606;SDS011;8922;52.240;20.980;2022-11-06T03:52:55;13.20;;;8.13;;
17606;SDS011;8922;52.240;20.980;2022-11-06T03:55:27;12.40;;;8.07;;
17606;SDS011;8922;52.240;20.980;2022-11-06T03:58:00;13.80;;;8.83;;
17606;SDS011;8922;52.240;20.980;2022-11-06T04:00:30;12.63;;;7.70;;
17606;SDS011;8922;52.240;20.980;2022-11-06T04:03:00;14.87;;;8.80;;
17606;SDS011;8922;52.240;20.980;2022-11-06T04:05:31;15.83;;;9.30;;
17606;SDS011;8922;52.240;20.980;2022-11-06T04:08:00;16.70;;;8.60;;
17606;SDS011;8922;52.240;20.980;2022-11-06T04:10:47;13.00;;;8.07;;
17606;SDS011;8922;52.240;20.980;2022-11-06T04:13:36;14.10;;;7.83;;
17606;SDS011;8922;52.240;20.980;2022-11-06T04:16:25;12.20;;;8.40;;
17606;SDS011;8922;52.240;20.980;2022-11-06T04:18:56;14.27;;;7.27;;
17606;SDS011;8922;52.240;20.980;2022-11-06T04:21:24;12.10;;;7.73;;
17606;SDS011;8922;52.240;20.980;2022-11-06T04:24:00;15.37;;;7.70;;
17606;SDS011;8922;52.240;20.980;2022-11-06T04:26:52;11.33;;;7.37;;
17606;SDS011;8922;52.240;20.980;2022-11-06T04:29:37;14.87;;;7.57;;
17606;SDS011;8922;52.240;20.980;2022-11-06T04:32:13;14.87;;;8.17;;
17606;SDS011;8922;52.240;20.980;2022-11-06T04:34:44;12.27;;;7.63;;
17606;SDS011;8922;52.240;20.980;2022-11-06T04:37:17;15.23;;;8.40;;
17606;SDS011;8922;52.240;20.980;2022-11-06T04:39:51;13.87;;;8.50;;
17606;SDS011;8922;52.240;20.980;2022-11-06T04:42:26;16.87;;;8.27;;
17606;SDS011;8922;52.240;20.980;2022-11-06T04:44:59;15.57;;;8.30;;
17606;SDS011;8922;52.240;20.980;2022-11-06T04:47:28;17.23;;;9.00;;
17606;SDS011;8922;52.240;20.980;2022-11-06T04:49:56;16.27;;;8.70;;
17606;SDS011;8922;52.240;20.980;2022-11-06T04:52:26;15.40;;;9.03;;
17606;SDS011;8922;52.240;20.980;2022-11-06T04:54:55;16.70;;;9.07;;
17606;SDS011;8922;52.240;20.980;2022-11-06T04:57:23;13.90;;;8.47;;
17606;SDS011;8922;52.240;20.980;2022-11-06T04:59:51;12.63;;;8.47;;
17606;SDS011;8922;52.240;20.980;2022-11-06T05:02:19;13.67;;;9.10;;
17606;SDS011;8922;52.240;20.980;2022-11-06T05:04:46;16.77;;;8.67;;
17606;SDS011;8922;52.240;20.980;2022-11-06T05:07:13;15.73;;;8.63;;
17606;SDS011;8922;52.240;20.980;2022-11-06T05:09:41;14.07;;;8.60;;
17606;SDS011;8922;52.240;20.980;2022-11-06T05:12:09;14.10;;;8.20;;
17606;SDS011;8922;52.240;20.980;2022-11-06T05:14:36;12.23;;;8.07;;
17606;SDS011;8922;52.240;20.980;2022-11-06T05:17:03;15.43;;;8.90;;
17606;SDS011;8922;52.240;20.980;2022-11-06T05:19:31;16.70;;;9.00;;
17606;SDS011;8922;52.240;20.980;2022-11-06T05:21:58;12.47;;;8.60;;
17606;SDS011;8922;52.240;20.980;2022-11-06T05:24:42;13.80;;;8.47;;
17606;SDS011;8922;52.240;20.980;2022-11-06T05:27:09;13.97;;;8.47;;
17606;SDS011;8922;52.240;20.980;2022-11-06T05:29:35;13.70;;;8.27;;
17606;SDS011;8922;52.240;20.980;2022-11-06T05:32:02;19.30;;;8.73;;
17606;SDS011;8922;52.240;20.980;2022-11-06T05:34:31;15.30;;;9.23;;
17606;SDS011;8922;52.240;20.980;2022-11-06T05:36:57;15.03;;;8.30;;
17606;SDS011;8922;52.240;20.980;2022-11-06T05:39:24;11.40;;;7.37;;
17606;SDS011;8922;52.240;20.980;2022-11-06T05:41:51;13.77;;;8.23;;
17606;SDS011;8922;52.240;20.980;2022-11-06T05:44:18;13.73;;;8.27;;
17606;SDS011;8922;52.240;20.980;2022-11-06T05:46:44;13.23;;;8.27;;
17606;SDS011;8922;52.240;20.980;2022-11-06T05:49:11;13.50;;;7.93;;
17606;SDS011;8922;52.240;20.980;2022-11-06T05:51:40;13.80;;;7.33;;
17606;SDS011;8922;52.240;20.980;2022-11-06T05:54:06;12.00;;;7.63;;
17606;SDS011;8922;52.240;20.980;2022-11-06T05:56:33;15.27;;;8.60;;
17606;SDS011;8922;52.240;20.980;2022-11-06T05:59:00;15.93;;;7.70;;
17606;SDS011;8922;52.240;20.980;2022-11-06T06:01:26;13.23;;;7.90;;
17606;SDS011;8922;52.240;20.980;2022-11-06T06:03:53;15.37;;;7.67;;
17606;SDS011;8922;52.240;20.980;2022-11-06T06:06:20;15.30;;;7.53;;
17606;SDS011;8922;52.240;20.980;2022-11-06T06:08:49;16.53;;;7.53;;
17606;SDS011;8922;52.240;20.980;2022-11-06T06:11:15;13.47;;;7.50;;
17606;SDS011;8922;52.240;20.980;2022-11-06T06:13:42;11.73;;;7.63;;
17606;SDS011;8922;52.240;20.980;2022-11-06T06:16:09;13.37;;;8.40;;
17606;SDS011;8922;52.240;20.980;2022-11-06T06:18:36;12.40;;;8.67;;
17606;SDS011;8922;52.240;20.980;2022-11-06T06:21:03;17.93;;;9.20;;
17606;SDS011;8922;52.240;20.980;2022-11-06T06:23:30;15.87;;;8.97;;
17606;SDS011;8922;52.240;20.980;2022-11-06T06:25:58;16.40;;;9.33;;
17606;SDS011;8922;52.240;20.980;2022-11-06T06:28:25;13.80;;;8.80;;
17606;SDS011;8922;52.240;20.980;2022-11-06T06:30:53;15.77;;;8.90;;
17606;SDS011;8922;52.240;20.980;2022-11-06T06:33:20;9.87;;;7.37;;
17606;SDS011;8922;52.240;20.980;2022-11-06T06:35:46;10.50;;;8.00;;
17606;SDS011;8922;52.240;20.980;2022-11-06T06:38:13;11.37;;;8.20;;
17606;SDS011;8922;52.240;20.980;2022-11-06T06:40:40;13.70;;;8.93;;
17606;SDS011;8922;52.240;20.980;2022-11-06T06:43:08;11.63;;;8.13;;
17606;SDS011;8922;52.240;20.980;2022-11-06T06:45:35;12.80;;;7.83;;
17606;SDS011;8922;52.240;20.980;2022-11-06T06:48:02;12.33;;;8.33;;
17606;SDS011;8922;52.240;20.980;2022-11-06T06:50:29;11.03;;;7.53;;
17606;SDS011;8922;52.240;20.980;2022-11-06T06:52:55;15.87;;;8.03;;
17606;SDS011;8922;52.240;20.980;2022-11-06T06:55:23;13.47;;;8.10;;
17606;SDS011;8922;52.240;20.980;2022-11-06T06:57:54;14.87;;;8.40;;
17606;SDS011;8922;52.240;20.980;2022-11-06T07:00:23;21.33;;;8.50;;
17606;SDS011;8922;52.240;20.980;2022-11-06T07:02:50;16.63;;;8.33;;
17606;SDS011;8922;52.240;20.980;2022-11-06T07:05:17;12.57;;;8.27;;
17606;SDS011;8922;52.240;20.980;2022-11-06T07:07:44;11.67;;;8.53;;
17606;SDS011;8922;52.240;20.980;2022-11-06T07:10:11;11.83;;;8.50;;
17606;SDS011;8922;52.240;20.980;2022-11-06T07:12:38;14.10;;;7.93;;
17606;SDS011;8922;52.240;20.980;2022-11-06T07:15:05;13.73;;;7.93;;
17606;SDS011;8922;52.240;20.980;2022-11-06T07:17:34;11.17;;;7.33;;
17606;SDS011;8922;52.240;20.980;2022-11-06T07:20:01;14.13;;;8.00;;
17606;SDS011;8922;52.240;20.980;2022-11-06T07:22:29;15.10;;;8.83;;
17606;SDS011;8922;52.240;20.980;2022-11-06T07:24:56;11.07;;;8.03;;
17606;SDS011;8922;52.240;20.980;2022-11-06T07:27:22;15.47;;;8.57;;
17606;SDS011;8922;52.240;20.980;2022-11-06T07:29:49;13.23;;;8.77;;
17606;SDS011;8922;52.240;20.980;2022-11-06T07:32:16;12.27;;;8.63;;
17606;SDS011;8922;52.240;20.980;2022-11-06T07:34:44;11.03;;;8.30;;
17606;SDS011;8922;52.240;20.980;2022-11-06T07:37:11;11.57;;;8.20;;
17606;SDS011;8922;52.240;20.980;2022-11-06T07:39:38;11.83;;;8.27;;
17606;SDS011;8922;52.240;20.980;2022-11-06T07:42:04;12.60;;;7.77;;
17606;SDS011;8922;52.240;20.980;2022-11-06T07:44:31;12.67;;;8.50;;
17606;SDS011;8922;52.240;20.980;2022-11-06T07:46:58;17.20;;;8.77;;
17606;SDS011;8922;52.240;20.980;2022-11-06T07:49:25;14.00;;;9.33;;
17606;SDS011;8922;52.240;20.980;2022-11-06T07:51:53;14.67;;;9.27;;
17606;SDS011;8922;52.240;20.980;2022-11-06T07:54:20;18.43;;;9.03;;
17606;SDS011;8922;52.240;20.980;2022-11-06T07:56:47;19.50;;;9.68;;
17606;SDS011;8922;52.240;20.980;2022-11-06T07:59:13;13.07;;;9.20;;
17606;SDS011;8922;52.240;20.980;2022-11-06T08:01:40;12.93;;;7.93;;
17606;SDS011;8922;52.240;20.980;2022-11-06T08:04:07;12.20;;;7.80;;
17606;SDS011;8922;52.240;20.980;2022-11-06T08:06:36;12.10;;;7.90;;
17606;SDS011;8922;52.240;20.980;2022-11-06T08:09:06;11.57;;;8.30;;
17606;SDS011;8922;52.240;20.980;2022-11-06T08:11:34;13.40;;;9.17;;
17606;SDS011;8922;52.240;20.980;2022-11-06T08:14:00;13.43;;;9.47;;
17606;SDS011;8922;52.240;20.980;2022-11-06T08:16:27;12.10;;;8.67;;
17606;SDS011;8922;52.240;20.980;2022-11-06T08:18:54;18.27;;;8.00;;
17606;SDS011;8922;52.240;20.980;2022-11-06T08:21:21;14.53;;;8.10;;
17606;SDS011;8922;52.240;20.980;2022-11-06T08:23:48;12.17;;;8.43;;
17606;SDS011;8922;52.240;20.980;2022-11-06T08:26:16;10.77;;;7.97;;
17606;SDS011;8922;52.240;20.980;2022-11-06T08:28:43;12.57;;;8.47;;
17606;SDS011;8922;52.240;20.980;2022-11-06T08:31:10;12.33;;;8.50;;
17606;SDS011;8922;52.240;20.980;2022-11-06T08:33:37;11.40;;;8.10;;
17606;SDS011;8922;52.240;20.980;2022-11-06T08:36:05;13.27;;;8.97;;
17606;SDS011;8922;52.240;20.980;2022-11-06T08:38:33;13.57;;;8.97;;
17606;SDS011;8922;52.240;20.980;2022-11-06T08:41:03;14.27;;;8.73;;
17606;SDS011;8922;52.240;20.980;2022-11-06T08:43:32;15.70;;;8.73;;
17606;SDS011;8922;52.240;20.980;2022-11-06T08:45:59;13.93;;;8.33;;
17606;SDS011;8922;52.240;20.980;2022-11-06T08:48:26;23.30;;;11.70;;
17606;SDS011;8922;52.240;20.980;2022-11-06T08:50:52;9.77;;;7.63;;
17606;SDS011;8922;52.240;20.980;2022-11-06T08:53:19;11.77;;;7.77;;
17606;SDS011;8922;52.240;20.980;2022-11-06T08:55:46;15.67;;;9.23;;
17606;SDS011;8922;52.240;20.980;2022-11-06T08:58:13;13.27;;;8.77;;
17606;SDS011;8922;52.240;20.980;2022-11-06T09:00:41;14.73;;;9.17;;
17606;SDS011;8922;52.240;20.980;2022-11-06T09:03:09;11.50;;;8.57;;
17606;SDS011;8922;52.240;20.980;2022-11-06T09:05:38;14.20;;;10.30;;
17606;SDS011;8922;52.240;20.980;2022-11-06T09:08:05;13.23;;;8.90;;
17606;SDS011;8922;52.240;20.980;2022-11-06T09:10:32;11.97;;;8.37;;
17606;SDS011;8922;52.240;20.980;2022-11-06T09:12:59;10.00;;;8.37;;
17606;SDS011;8922;52.240;20.980;2022-11-06T09:15:26;14.63;;;8.67;;
17606;SDS011;8922;52.240;20.980;2022-11-06T09:17:54;16.63;;;9.33;;
17606;SDS011;8922;52.240;20.980;2022-11-06T09:20:22;14.33;;;9.33;;
17606;SDS011;8922;52.240;20.980;2022-11-06T09:22:49;13.80;;;10.37;;
17606;SDS011;8922;52.240;20.980;2022-11-06T09:25:17;14.23;;;9.83;;
17606;SDS011;8922;52.240;20.980;2022-11-06T09:27:45;15.13;;;10.03;;
17606;SDS011;8922;52.240;20.980;2022-11-06T09:30:13;20.43;;;11.93;;
17606;SDS011;8922;52.240;20.980;2022-11-06T09:32:43;19.30;;;11.13;;
17606;SDS011;8922;52.240;20.980;2022-11-06T09:35:12;14.07;;;9.70;;
17606;SDS011;8922;52.240;20.980;2022-11-06T09:37:39;13.13;;;9.03;;
17606;SDS011;8922;52.240;20.980;2022-11-06T09:40:06;14.23;;;10.10;;
17606;SDS011;8922;52.240;20.980;2022-11-06T09:42:42;13.73;;;11.27;;
17606;SDS011;8922;52.240;20.980;2022-11-06T09:45:18;16.77;;;11.37;;
17606;SDS011;8922;52.240;20.980;2022-11-06T09:47:48;15.93;;;11.27;;
17606;SDS011;8922;52.240;20.980;2022-11-06T09:50:21;21.47;;;12.37;;
17606;SDS011;8922;52.240;20.980;2022-11-06T09:52:52;17.27;;;11.20;;
17606;SDS011;8922;52.240;20.980;2022-11-06T09:55:23;13.33;;;10.07;;
17606;SDS011;8922;52.240;20.980;2022-11-06T09:57:54;14.70;;;10.60;;
17606;SDS011;8922;52.240;20.980;2022-11-06T10:00:23;14.33;;;9.93;;
17606;SDS011;8922;52.240;20.980;2022-11-06T10:02:51;17.53;;;11.03;;
17606;SDS011;8922;52.240;20.980;2022-11-06T10:05:24;13.23;;;10.07;;
17606;SDS011;8922;52.240;20.980;2022-11-06T10:07:56;13.93;;;10.43;;
17606;SDS011;8922;52.240;20.980;2022-11-06T10:10:27;18.73;;;10.10;;
17606;SDS011;8922;52.240;20.980;2022-11-06T10:13:03;12.77;;;9.40;;
17606;SDS011;8922;52.240;20.980;2022-11-06T10:15:42;17.47;;;10.20;;
17606;SDS011;8922;52.240;20.980;2022-11-06T10:18:16;20.27;;;10.60;;
17606;SDS011;8922;52.240;20.980;2022-11-06T10:20:51;13.30;;;9.40;;
17606;SDS011;8922;52.240;20.980;2022-11-06T10:23:21;11.77;;;9.33;;
17606;SDS011;8922;52.240;20.980;2022-11-06T10:25:56;11.87;;;9.70;;
17606;SDS011;8922;52.240;20.980;2022-11-06T10:28:33;16.07;;;9.63;;
17606;SDS011;8922;52.240;20.980;2022-11-06T10:31:12;12.40;;;8.30;;
17606;SDS011;8922;52.240;20.980;2022-11-06T10:33:49;14.87;;;8.60;;
17606;SDS011;8922;52.240;20.980;2022-11-06T10:36:23;10.43;;;7.73;;
17606;SDS011;8922;52.240;20.980;2022-11-06T10:38:54;13.10;;;9.00;;
17606;SDS011;8922;52.240;20.980;2022-11-06T10:41:23;12.57;;;7.50;;
17606;SDS011;8922;52.240;20.980;2022-11-06T10:43:53;11.47;;;7.97;;
17606;SDS011;8922;52.240;20.980;2022-11-06T10:46:26;11.63;;;7.53;;
17606;SDS011;8922;52.240;20.980;2022-11-06T10:48:59;11.07;;;7.97;;
17606;SDS011;8922;52.240;20.980;2022-11-06T10:51:39;13.00;;;9.07;;
17606;SDS011;8922;52.240;20.980;2022-11-06T10:54:28;9.97;;;8.50;;
17606;SDS011;8922;52.240;20.980;2022-11-06T10:57:12;12.17;;;8.13;;
17606;SDS011;8922;52.240;20.980;2022-11-06T10:59:48;10.95;;;8.07;;
17606;SDS011;8922;52.240;20.980;2022-11-06T11:02:22;11.85;;;8.55;;
17606;SDS011;8922;52.240;20.980;2022-11-06T11:04:52;10.50;;;8.75;;
17606;SDS011;8922;52.240;20.980;2022-11-06T11:07:20;14.27;;;7.75;;
17606;SDS011;8922;52.240;20.980;2022-11-06T11:09:48;10.77;;;7.75;;
17606;SDS011;8922;52.240;20.980;2022-11-06T11:12:19;9.07;;;7.00;;
17606;SDS011;8922;52.240;20.980;2022-11-06T11:17:39;9.85;;;7.78;;
17606;SDS011;8922;52.240;20.980;2022-11-06T11:20:27;11.15;;;7.60;;
17606;SDS011;8922;52.240;20.980;2022-11-06T11:23:09;10.55;;;7.72;;
17606;SDS011;8922;52.240;20.980;2022-11-06T11:25:40;10.18;;;9.07;;
17606;SDS011;8922;52.240;20.980;2022-11-06T11:28:11;9.57;;;7.97;;
17606;SDS011;8922;52.240;20.980;2022-11-06T11:30:49;9.38;;;7.35;;
17606;SDS011;8922;52.240;20.980;2022-11-06T11:33:18;9.10;;;8.10;;
17606;SDS011;8922;52.240;20.980;2022-11-06T11:35:47;10.43;;;8.02;;
17606;SDS011;8922;52.240;20.980;2022-11-06T11:38:17;10.05;;;7.82;;
17606;SDS011;8922;52.240;20.980;2022-11-06T11:40:45;10.80;;;7.35;;
17606;SDS011;8922;52.240;20.980;2022-11-06T11:43:23;10.13;;;8.15;;
17606;SDS011;8922;52.240;20.980;2022-11-06T11:46:01;10.20;;;7.85;;
17606;SDS011;8922;52.240;20.980;2022-11-06T11:48:43;9.93;;;8.45;;
17606;SDS011;8922;52.240;20.980;2022-11-06T11:51:12;10.27;;;8.07;;
17606;SDS011;8922;52.240;20.980;2022-11-06T11:54:02;10.73;;;7.50;;
17606;SDS011;8922;52.240;20.980;2022-11-06T11:56:31;10.38;;;8.35;;
17606;SDS011;8922;52.240;20.980;2022-11-06T11:59:00;14.73;;;9.77;;
17606;SDS011;8922;52.240;20.980;2022-11-06T12:01:37;14.63;;;10.38;;
17606;SDS011;8922;52.240;20.980;2022-11-06T12:04:12;13.00;;;10.00;;
17606;SDS011;8922;52.240;20.980;2022-11-06T12:06:52;13.13;;;10.52;;
17606;SDS011;8922;52.240;20.980;2022-11-06T12:09:25;17.77;;;11.52;;
17606;SDS011;8922;52.240;20.980;2022-11-06T12:11:54;14.82;;;10.40;;
17606;SDS011;8922;52.240;20.980;2022-11-06T12:14:32;15.20;;;10.73;;
17606;SDS011;8922;52.240;20.980;2022-11-06T12:17:07;16.52;;;11.40;;
17606;SDS011;8922;52.240;20.980;2022-11-06T12:19:44;18.55;;;11.38;;
17606;SDS011;8922;52.240;20.980;2022-11-06T12:22:17;14.07;;;10.82;;
17606;SDS011;8922;52.240;20.980;2022-11-06T12:24:52;16.10;;;10.48;;
17606;SDS011;8922;52.240;20.980;2022-11-06T12:27:22;15.15;;;9.80;;
17606;SDS011;8922;52.240;20.980;2022-11-06T12:29:55;15.52;;;9.88;;
17606;SDS011;8922;52.240;20.980;2022-11-06T12:32:35;15.87;;;8.57;;
17606;SDS011;8922;52.240;20.980;2022-11-06T12:35:12;12.17;;;8.20;;
17606;SDS011;8922;52.240;20.980;2022-11-06T12:37:47;13.93;;;8.67;;
17606;SDS011;8922;52.240;20.980;2022-11-06T12:40:24;10.97;;;7.40;;
17606;SDS011;8922;52.240;20.980;2022-11-06T12:42:56;12.17;;;8.27;;
17606;SDS011;8922;52.240;20.980;2022-11-06T12:45:34;15.10;;;9.40;;
17606;SDS011;8922;52.240;20.980;2022-11-06T12:48:22;14.50;;;8.87;;
17606;SDS011;8922;52.240;20.980;2022-11-06T12:50:59;13.23;;;9.87;;
17606;SDS011;8922;52.240;20.980;2022-11-06T12:53:35;15.10;;;9.20;;
17606;SDS011;8922;52.240;20.980;2022-11-06T12:56:11;15.37;;;9.53;;
17606;SDS011;8922;52.240;20.980;2022-11-06T12:58:47;16.50;;;8.93;;
17606;SDS011;8922;52.240;20.980;2022-11-06T13:01:24;12.33;;;7.43;;
17606;SDS011;8922;52.240;20.980;2022-11-06T13:04:20;16.77;;;8.77;;
17606;SDS011;8922;52.240;20.980;2022-11-06T13:07:01;11.57;;;7.43;;
17606;SDS011;8922;52.240;20.980;2022-11-06T13:09:36;15.03;;;8.40;;
17606;SDS011;8922;52.240;20.980;2022-11-06T13:12:11;10.00;;;7.00;;
17606;SDS011;8922;52.240;20.980;2022-11-06T13:14:46;10.80;;;7.00;;
17606;SDS011;8922;52.240;20.980;2022-11-06T13:17:20;11.47;;;7.67;;
17606;SDS011;8922;52.240;20.980;2022-11-06T13:19:54;14.87;;;7.97;;
17606;SDS011;8922;52.240;20.980;2022-11-06T13:22:27;12.63;;;8.30;;
17606;SDS011;8922;52.240;20.980;2022-11-06T13:24:58;12.83;;;7.33;;
17606;SDS011;8922;52.240;20.980;2022-11-06T13:27:35;15.67;;;7.30;;
17606;SDS011;8922;52.240;20.980;2022-11-06T13:30:10;11.97;;;6.17;;
17606;SDS011;8922;52.240;20.980;2022-11-06T13:32:39;10.40;;;6.03;;
17606;SDS011;8922;52.240;20.980;2022-11-06T13:35:11;12.17;;;6.13;;
17606;SDS011;8922;52.240;20.980;2022-11-06T13:37:40;15.30;;;6.47;;
17606;SDS011;8922;52.240;20.980;2022-11-06T13:40:16;12.17;;;6.47;;
17606;SDS011;8922;52.240;20.980;2022-11-06T13:42:52;10.23;;;6.10;;
17606;SDS011;8922;52.240;20.980;2022-11-06T13:45:25;11.80;;;6.23;;
17606;SDS011;8922;52.240;20.980;2022-11-06T13:47:59;13.27;;;6.97;;
17606;SDS011;8922;52.240;20.980;2022-11-06T13:50:41;12.30;;;7.20;;
17606;SDS011;8922;52.240;20.980;2022-11-06T13:53:16;8.83;;;5.70;;
17606;SDS011;8922;52.240;20.980;2022-11-06T13:55:55;9.33;;;5.10;;
17606;SDS011;8922;52.240;20.980;2022-11-06T13:58:43;7.80;;;5.53;;
17606;SDS011;8922;52.240;20.980;2022-11-06T14:01:38;7.50;;;4.53;;
17606;SDS011;8922;52.240;20.980;2022-11-06T14:04:28;8.90;;;5.17;;
17606;SDS011;8922;52.240;20.980;2022-11-06T14:07:11;6.57;;;4.60;;
17606;SDS011;8922;52.240;20.980;2022-11-06T14:09:40;7.90;;;4.57;;
17606;SDS011;8922;52.240;20.980;2022-11-06T14:12:12;9.20;;;5.13;;
17606;SDS011;8922;52.240;20.980;2022-11-06T14:14:44;12.20;;;7.73;;
17606;SDS011;8922;52.240;20.980;2022-11-06T14:17:12;10.43;;;6.33;;
17606;SDS011;8922;52.240;20.980;2022-11-06T14:19:59;10.23;;;5.47;;
17606;SDS011;8922;52.240;20.980;2022-11-06T14:22:28;9.47;;;5.60;;
17606;SDS011;8922;52.240;20.980;2022-11-06T14:24:57;8.63;;;5.53;;
17606;SDS011;8922;52.240;20.980;2022-11-06T14:30:39;10.13;;;5.60;;
17606;SDS011;8922;52.240;20.980;2022-11-06T14:33:08;10.47;;;5.60;;
17606;SDS011;8922;52.240;20.980;2022-11-06T14:38:34;14.80;;;7.93;;
17606;SDS011;8922;52.240;20.980;2022-11-06T14:44:04;12.57;;;7.87;;
17606;SDS011;8922;52.240;20.980;2022-11-06T14:46:40;15.17;;;8.37;;
17606;SDS011;8922;52.240;20.980;2022-11-06T14:49:18;13.57;;;9.17;;
17606;SDS011;8922;52.240;20.980;2022-11-06T14:51:55;10.73;;;7.20;;
17606;SDS011;8922;52.240;20.980;2022-11-06T14:54:24;10.83;;;8.20;;
17606;SDS011;8922;52.240;20.980;2022-11-06T14:56:51;12.47;;;8.03;;
17606;SDS011;8922;52.240;20.980;2022-11-06T14:59:19;12.13;;;7.43;;
17606;SDS011;8922;52.240;20.980;2022-11-06T15:01:54;12.50;;;7.47;;
17606;SDS011;8922;52.240;20.980;2022-11-06T15:04:23;14.17;;;8.67;;
17606;SDS011;8922;52.240;20.980;2022-11-06T15:06:52;13.80;;;7.70;;
17606;SDS011;8922;52.240;20.980;2022-11-06T15:12:10;11.93;;;7.67;;
17606;SDS011;8922;52.240;20.980;2022-11-06T15:17:22;14.73;;;8.27;;